FIN87 EFHK-ZSPD
Flight info
| Callsign | FIN87 |
|---|---|
| Flight time | N/A |
| Altitude | 33000 |
| Route | KOIVU DCT LARTI DCT NAVOT DCT LUTAL DCT ROLAV/N0488F340 DCT BOKSU DCT TOXAR DCT ROBTU/N0484F350 DCT KENIN DCT DOKUD DCT URELA DCT REVDA DCT UDROS DCT ABSAX UN743 GAKSU UT310 SIN UM860 CRM UM11 REBLO DCT MATAL T916 BALUN/K0898F370 T916 PIGAL M610 RULAD/K0889S1130 A343 POSOT B215 FKG/K0883S1190 W188 LIKMI W270 DKO W69 HUR B339 SOTMU/K0885S1220 W98 ELKUR W40 DOXAB/K0883S1190 W40 YQG/K0896S1220 W142 DALIM/K0891S1190 A593 DPX A470 DALNU W166 ZJ W167 SASAN SAS82A |
| Aircraft | A359/H-SDE2E3GHIJ1J3J4J5LM1ORWXY/LB1D1 |
Departure
| Time | N/A |
|---|---|
| Airport | Helsinki Vantaa Airport (EFHK) |
Arrival
| Time | 2026-05-04 22:07 |
|---|---|
| Airport | Shanghai Pudong International Airport (ZSPD) |
| Time | Latitude | Longitude | Altitude | Speed | Heading |
|---|---|---|---|---|---|
| 2026-05-04 20:27 | 40.50014 | 114.13083 | 38818 ft | 509 kts | 89° |
| 2026-05-04 20:28 | 40.49689 | 114.22493 | 38821 ft | 509 kts | 90° |
| 2026-05-04 20:28 | 40.49316 | 114.31787 | 38814 ft | 510 kts | 90° |
| 2026-05-04 20:29 | 40.48902 | 114.41157 | 38816 ft | 510 kts | 90° |
| 2026-05-04 20:29 | 40.48481 | 114.50391 | 38813 ft | 510 kts | 90° |
| 2026-05-04 20:30 | 40.48051 | 114.59706 | 38814 ft | 510 kts | 90° |
| 2026-05-04 20:30 | 40.47615 | 114.69010 | 38814 ft | 510 kts | 90° |
| 2026-05-04 20:31 | 40.47173 | 114.78306 | 38811 ft | 510 kts | 90° |
| 2026-05-04 20:31 | 40.46721 | 114.87619 | 38813 ft | 511 kts | 91° |
| 2026-05-04 20:32 | 40.46262 | 114.96925 | 38812 ft | 511 kts | 91° |
| 2026-05-04 20:32 | 40.45797 | 115.06222 | 38805 ft | 511 kts | 91° |
| 2026-05-04 20:33 | 40.45405 | 115.13956 | 38809 ft | 511 kts | 91° |
| 2026-05-04 20:33 | 40.44923 | 115.23267 | 38808 ft | 510 kts | 91° |
| 2026-05-04 20:34 | 40.44437 | 115.32553 | 38805 ft | 510 kts | 91° |
| 2026-05-04 20:34 | 40.43944 | 115.41842 | 38806 ft | 510 kts | 91° |
| 2026-05-04 20:35 | 40.43444 | 115.51115 | 38806 ft | 509 kts | 91° |
| 2026-05-04 20:35 | 40.42860 | 115.60389 | 38810 ft | 510 kts | 93° |
| 2026-05-04 20:36 | 40.42073 | 115.69628 | 38818 ft | 510 kts | 94° |
| 2026-05-04 20:36 | 40.41269 | 115.78885 | 38819 ft | 510 kts | 94° |
| 2026-05-04 20:37 | 40.40492 | 115.88130 | 38822 ft | 510 kts | 94° |
| 2026-05-04 20:37 | 40.39731 | 115.97304 | 38824 ft | 509 kts | 94° |
| 2026-05-04 20:38 | 40.38955 | 116.06599 | 38825 ft | 509 kts | 94° |
| 2026-05-04 20:38 | 40.38179 | 116.15773 | 38829 ft | 509 kts | 94° |
| 2026-05-04 20:39 | 40.37392 | 116.24989 | 38830 ft | 509 kts | 94° |
| 2026-05-04 20:39 | 40.36597 | 116.34213 | 38832 ft | 509 kts | 94° |
| 2026-05-04 20:40 | 40.35793 | 116.43449 | 38829 ft | 509 kts | 94° |
| 2026-05-04 20:40 | 40.34984 | 116.52663 | 38826 ft | 509 kts | 94° |
| 2026-05-04 20:41 | 40.33997 | 116.61878 | 38819 ft | 512 kts | 101° |
| 2026-05-04 20:41 | 40.31259 | 116.70494 | 38816 ft | 517 kts | 122° |
| 2026-05-04 20:42 | 40.29065 | 116.74221 | 38817 ft | 518 kts | 133° |
| 2026-05-04 20:42 | 40.26396 | 116.77373 | 38812 ft | 518 kts | 144° |
| 2026-05-04 20:42 | 40.23343 | 116.79846 | 38811 ft | 517 kts | 155° |
| 2026-05-04 20:42 | 40.20004 | 116.81569 | 38808 ft | 514 kts | 166° |
| 2026-05-04 20:43 | 40.16505 | 116.82491 | 38810 ft | 511 kts | 177° |
| 2026-05-04 20:43 | 40.12983 | 116.82601 | 38810 ft | 507 kts | 187° |
| 2026-05-04 20:43 | 40.06039 | 116.81222 | 38812 ft | 507 kts | 187° |
| 2026-05-04 20:44 | 39.98953 | 116.81674 | 38807 ft | 513 kts | 175° |
| 2026-05-04 20:44 | 39.91874 | 116.82994 | 38806 ft | 515 kts | 173° |
| 2026-05-04 20:45 | 39.84792 | 116.84445 | 38811 ft | 516 kts | 173° |
| 2026-05-04 20:45 | 39.77672 | 116.84958 | 39003 ft | 510 kts | 188° |
| 2026-05-04 20:46 | 39.74138 | 116.84516 | 39178 ft | 509 kts | 189° |
| 2026-05-04 20:46 | 39.70631 | 116.83980 | 39333 ft | 508 kts | 191° |
| 2026-05-04 20:46 | 39.67114 | 116.83393 | 39480 ft | 508 kts | 191° |
| 2026-05-04 20:46 | 39.63619 | 116.82793 | 39631 ft | 508 kts | 191° |
| 2026-05-04 20:47 | 39.60113 | 116.82190 | 39750 ft | 508 kts | 191° |
| 2026-05-04 20:47 | 39.56595 | 116.81592 | 39796 ft | 510 kts | 191° |
| 2026-05-04 20:47 | 39.49548 | 116.80415 | 39801 ft | 511 kts | 191° |
| 2026-05-04 20:48 | 39.42544 | 116.79264 | 39799 ft | 511 kts | 191° |
| 2026-05-04 20:48 | 39.35502 | 116.78110 | 39796 ft | 511 kts | 191° |
| 2026-05-04 20:49 | 39.28446 | 116.76955 | 39797 ft | 511 kts | 191° |
| 2026-05-04 20:49 | 39.21391 | 116.75802 | 39794 ft | 511 kts | 191° |
| 2026-05-04 20:50 | 39.14330 | 116.74649 | 39792 ft | 512 kts | 191° |
| 2026-05-04 20:50 | 39.07267 | 116.73499 | 39791 ft | 512 kts | 191° |
| 2026-05-04 20:51 | 39.00196 | 116.72351 | 39792 ft | 512 kts | 191° |
| 2026-05-04 20:51 | 38.93122 | 116.71204 | 39793 ft | 513 kts | 191° |
| 2026-05-04 20:52 | 38.86037 | 116.70057 | 39797 ft | 513 kts | 191° |
| 2026-05-04 20:52 | 38.78952 | 116.68912 | 39803 ft | 513 kts | 190° |
| 2026-05-04 20:53 | 38.71863 | 116.67770 | 39801 ft | 513 kts | 190° |
| 2026-05-04 20:53 | 38.64775 | 116.66631 | 39804 ft | 514 kts | 190° |
| 2026-05-04 20:54 | 38.57667 | 116.65642 | 39807 ft | 515 kts | 188° |
| 2026-05-04 20:54 | 38.50528 | 116.64883 | 39808 ft | 515 kts | 188° |
| 2026-05-04 20:55 | 38.43383 | 116.64121 | 39806 ft | 515 kts | 188° |
| 2026-05-04 20:55 | 38.36251 | 116.63322 | 39813 ft | 514 kts | 188° |
| 2026-05-04 20:56 | 38.29084 | 116.63062 | 39814 ft | 518 kts | 176° |
| 2026-05-04 20:56 | 38.22027 | 116.65020 | 39818 ft | 521 kts | 166° |
| 2026-05-04 20:57 | 38.15063 | 116.67609 | 39822 ft | 521 kts | 165° |
| 2026-05-04 20:57 | 38.08127 | 116.70272 | 39825 ft | 521 kts | 165° |
| 2026-05-04 20:58 | 38.01199 | 116.72949 | 39825 ft | 520 kts | 165° |
| 2026-05-04 20:58 | 37.94275 | 116.75603 | 39826 ft | 519 kts | 165° |
| 2026-05-04 20:59 | 37.87411 | 116.78212 | 39831 ft | 518 kts | 165° |
| 2026-05-04 20:59 | 37.80506 | 116.80827 | 39833 ft | 517 kts | 165° |
| 2026-05-04 21:00 | 37.73606 | 116.83435 | 39835 ft | 516 kts | 165° |
| 2026-05-04 21:00 | 37.66731 | 116.86030 | 39837 ft | 516 kts | 165° |
| 2026-05-04 21:01 | 37.59855 | 116.88621 | 39842 ft | 515 kts | 165° |
| 2026-05-04 21:01 | 37.52996 | 116.91199 | 39849 ft | 514 kts | 165° |
| 2026-05-04 21:02 | 37.46141 | 116.93773 | 39850 ft | 514 kts | 165° |
| 2026-05-04 21:02 | 37.39289 | 116.96340 | 39854 ft | 513 kts | 165° |
| 2026-05-04 21:03 | 37.32443 | 116.98901 | 39855 ft | 513 kts | 165° |
| 2026-05-04 21:03 | 37.25635 | 117.01565 | 39859 ft | 513 kts | 162° |
| 2026-05-04 21:04 | 37.18958 | 117.04759 | 39859 ft | 514 kts | 160° |
| 2026-05-04 21:04 | 37.12298 | 117.08019 | 39861 ft | 513 kts | 161° |
| 2026-05-04 21:05 | 37.05619 | 117.11190 | 39864 ft | 513 kts | 161° |
| 2026-05-04 21:05 | 36.98926 | 117.14310 | 39867 ft | 513 kts | 161° |
| 2026-05-04 21:06 | 36.92229 | 117.17416 | 39872 ft | 513 kts | 162° |
| 2026-05-04 21:06 | 36.85503 | 117.20411 | 39874 ft | 512 kts | 167° |
| 2026-05-04 21:07 | 36.78514 | 117.21582 | 39880 ft | 505 kts | 181° |
| 2026-05-04 21:07 | 36.71495 | 117.21629 | 39897 ft | 505 kts | 184° |
| 2026-05-04 21:08 | 36.64473 | 117.21515 | 39896 ft | 505 kts | 184° |
| 2026-05-04 21:08 | 36.57463 | 117.21422 | 39908 ft | 504 kts | 184° |
| 2026-05-04 21:09 | 36.50435 | 117.21362 | 39920 ft | 504 kts | 184° |
| 2026-05-04 21:09 | 36.43421 | 117.21443 | 39924 ft | 506 kts | 178° |
| 2026-05-04 21:10 | 36.36495 | 117.23213 | 39938 ft | 511 kts | 167° |
| 2026-05-04 21:10 | 36.29665 | 117.25713 | 39943 ft | 512 kts | 166° |
| 2026-05-04 21:11 | 36.22897 | 117.28288 | 39941 ft | 512 kts | 166° |
| 2026-05-04 21:11 | 36.16086 | 117.30848 | 39947 ft | 512 kts | 166° |
| 2026-05-04 21:12 | 36.09256 | 117.33381 | 39952 ft | 512 kts | 166° |
| 2026-05-04 21:12 | 36.02423 | 117.35903 | 39954 ft | 512 kts | 166° |
| 2026-05-04 21:13 | 35.95601 | 117.38433 | 39949 ft | 512 kts | 166° |
| 2026-05-04 21:13 | 35.88781 | 117.40990 | 39954 ft | 512 kts | 166° |
| 2026-05-04 21:14 | 35.81956 | 117.43546 | 39953 ft | 513 kts | 166° |
| 2026-05-04 21:14 | 35.75132 | 117.46095 | 39956 ft | 512 kts | 166° |
| 2026-05-04 21:15 | 35.68312 | 117.48635 | 39956 ft | 512 kts | 166° |
| 2026-05-04 21:15 | 35.61491 | 117.51171 | 39963 ft | 512 kts | 167° |
| 2026-05-04 21:16 | 35.54681 | 117.53698 | 39964 ft | 512 kts | 167° |
| 2026-05-04 21:16 | 35.47866 | 117.56222 | 39967 ft | 511 kts | 167° |
| 2026-05-04 21:17 | 35.41056 | 117.58741 | 39970 ft | 511 kts | 167° |
| 2026-05-04 21:17 | 35.34255 | 117.61251 | 39971 ft | 510 kts | 167° |
| 2026-05-04 21:18 | 35.27468 | 117.63752 | 39977 ft | 510 kts | 167° |
| 2026-05-04 21:18 | 35.20675 | 117.66251 | 39977 ft | 509 kts | 167° |
| 2026-05-04 21:19 | 35.13887 | 117.68743 | 39986 ft | 509 kts | 167° |
| 2026-05-04 21:19 | 35.08257 | 117.70808 | 39986 ft | 509 kts | 167° |
| 2026-05-04 21:20 | 35.00375 | 117.73702 | 39981 ft | 509 kts | 167° |
| 2026-05-04 21:20 | 34.93590 | 117.76182 | 39980 ft | 509 kts | 167° |
| 2026-05-04 21:21 | 34.87901 | 117.78259 | 39981 ft | 509 kts | 167° |
| 2026-05-04 21:21 | 34.81127 | 117.80742 | 39980 ft | 509 kts | 167° |
| 2026-05-04 21:22 | 34.74326 | 117.83221 | 39982 ft | 509 kts | 168° |
| 2026-05-04 21:22 | 34.67527 | 117.85647 | 39982 ft | 509 kts | 168° |
| 2026-05-04 21:23 | 34.60774 | 117.88059 | 39981 ft | 509 kts | 168° |
| 2026-05-04 21:23 | 34.53983 | 117.90491 | 39982 ft | 510 kts | 168° |
| 2026-05-04 21:24 | 34.47172 | 117.92929 | 39978 ft | 510 kts | 168° |
| 2026-05-04 21:24 | 34.40377 | 117.95359 | 39977 ft | 510 kts | 168° |
| 2026-05-04 21:25 | 34.33568 | 117.97788 | 39978 ft | 509 kts | 168° |
| 2026-05-04 21:25 | 34.26772 | 118.00211 | 39980 ft | 509 kts | 168° |
| 2026-05-04 21:26 | 34.19988 | 118.02674 | 39986 ft | 509 kts | 168° |
| 2026-05-04 21:26 | 34.13212 | 118.05150 | 39984 ft | 509 kts | 168° |
| 2026-05-04 21:27 | 34.06426 | 118.07622 | 39980 ft | 509 kts | 168° |
| 2026-05-04 21:27 | 33.99652 | 118.10082 | 39980 ft | 509 kts | 168° |
| 2026-05-04 21:28 | 33.92880 | 118.12552 | 39984 ft | 509 kts | 168° |
| 2026-05-04 21:28 | 33.86099 | 118.15016 | 39982 ft | 509 kts | 168° |
| 2026-05-04 21:29 | 33.79538 | 118.18326 | 39986 ft | 519 kts | 153° |
| 2026-05-04 21:29 | 33.73516 | 118.23084 | 39986 ft | 523 kts | 150° |
| 2026-05-04 21:30 | 33.67549 | 118.28096 | 39986 ft | 524 kts | 149° |
| 2026-05-04 21:30 | 33.61581 | 118.33110 | 39986 ft | 524 kts | 150° |
| 2026-05-04 21:31 | 33.52597 | 118.40571 | 39992 ft | 524 kts | 150° |
| 2026-05-04 21:32 | 33.46587 | 118.45534 | 39993 ft | 524 kts | 150° |
| 2026-05-04 21:32 | 33.40583 | 118.50485 | 39994 ft | 525 kts | 150° |
| 2026-05-04 21:33 | 33.34567 | 118.55438 | 39991 ft | 525 kts | 150° |
| 2026-05-04 21:33 | 33.28555 | 118.60381 | 39994 ft | 525 kts | 150° |
| 2026-05-04 21:34 | 33.22531 | 118.65325 | 40002 ft | 525 kts | 151° |
| 2026-05-04 21:34 | 33.16517 | 118.70286 | 39997 ft | 526 kts | 150° |
| 2026-05-04 21:35 | 33.10515 | 118.75278 | 40008 ft | 526 kts | 150° |
| 2026-05-04 21:35 | 33.04507 | 118.80266 | 40002 ft | 526 kts | 150° |
| 2026-05-04 21:36 | 32.98492 | 118.85245 | 40008 ft | 526 kts | 151° |
| 2026-05-04 21:36 | 32.92474 | 118.90215 | 40006 ft | 527 kts | 151° |
| 2026-05-04 21:37 | 32.86454 | 118.95178 | 40006 ft | 527 kts | 151° |
| 2026-05-04 21:37 | 32.80436 | 119.00145 | 40007 ft | 527 kts | 151° |
| 2026-05-04 21:38 | 32.74422 | 119.05146 | 40009 ft | 527 kts | 151° |
| 2026-05-04 21:38 | 32.68455 | 119.10103 | 40012 ft | 527 kts | 151° |
| 2026-05-04 21:39 | 32.62439 | 119.15084 | 40009 ft | 527 kts | 151° |
| 2026-05-04 21:39 | 32.56423 | 119.20053 | 40013 ft | 527 kts | 151° |
| 2026-05-04 21:40 | 32.50402 | 119.25017 | 40017 ft | 527 kts | 152° |
| 2026-05-04 21:40 | 32.44378 | 119.29977 | 40019 ft | 527 kts | 152° |
| 2026-05-04 21:41 | 32.38346 | 119.34935 | 40017 ft | 528 kts | 152° |
| 2026-05-04 21:41 | 32.32319 | 119.39880 | 40023 ft | 528 kts | 152° |
| 2026-05-04 21:42 | 32.26288 | 119.44820 | 40024 ft | 527 kts | 152° |
| 2026-05-04 21:42 | 32.20247 | 119.49760 | 40023 ft | 527 kts | 152° |
| 2026-05-04 21:43 | 32.14214 | 119.54686 | 40028 ft | 527 kts | 152° |
| 2026-05-04 21:43 | 32.11216 | 119.57134 | 39703 ft | 523 kts | 152° |
| 2026-05-04 21:43 | 32.08216 | 119.59580 | 39052 ft | 525 kts | 152° |
| 2026-05-04 21:43 | 32.05200 | 119.62033 | 38333 ft | 527 kts | 153° |
| 2026-05-04 21:44 | 32.02182 | 119.64484 | 37566 ft | 528 kts | 152° |
| 2026-05-04 21:44 | 31.99159 | 119.66939 | 36824 ft | 528 kts | 152° |
| 2026-05-04 21:44 | 31.96151 | 119.69411 | 36110 ft | 530 kts | 150° |
| 2026-05-04 21:44 | 31.93460 | 119.72450 | 35383 ft | 543 kts | 134° |
| 2026-05-04 21:45 | 31.91233 | 119.76053 | 34727 ft | 546 kts | 129° |
| 2026-05-04 21:45 | 31.89115 | 119.79748 | 34102 ft | 544 kts | 129° |
| 2026-05-04 21:45 | 31.87006 | 119.83435 | 33458 ft | 540 kts | 129° |
| 2026-05-04 21:45 | 31.84920 | 119.87071 | 32887 ft | 535 kts | 129° |
| 2026-05-04 21:46 | 31.82844 | 119.90682 | 32348 ft | 530 kts | 129° |
| 2026-05-04 21:46 | 31.80785 | 119.94257 | 31837 ft | 525 kts | 128° |
| 2026-05-04 21:46 | 31.78748 | 119.97790 | 31336 ft | 519 kts | 128° |
| 2026-05-04 21:46 | 31.76735 | 120.01274 | 30845 ft | 514 kts | 128° |
| 2026-05-04 21:47 | 31.74734 | 120.04736 | 30389 ft | 509 kts | 128° |
| 2026-05-04 21:47 | 31.72750 | 120.08165 | 29875 ft | 505 kts | 128° |
| 2026-05-04 21:47 | 31.70783 | 120.11561 | 29339 ft | 500 kts | 128° |
| 2026-05-04 21:47 | 31.68866 | 120.14869 | 28811 ft | 495 kts | 128° |
| 2026-05-04 21:48 | 31.66938 | 120.18192 | 28294 ft | 490 kts | 128° |
| 2026-05-04 21:48 | 31.65030 | 120.21478 | 27787 ft | 486 kts | 128° |
| 2026-05-04 21:48 | 31.63132 | 120.24742 | 27284 ft | 481 kts | 128° |
| 2026-05-04 21:48 | 31.61253 | 120.27973 | 26793 ft | 477 kts | 128° |
| 2026-05-04 21:49 | 31.59427 | 120.31193 | 26298 ft | 474 kts | 124° |
| 2026-05-04 21:49 | 31.58067 | 120.34713 | 25818 ft | 474 kts | 112° |
| 2026-05-04 21:49 | 31.57000 | 120.38351 | 25343 ft | 470 kts | 110° |
| 2026-05-04 21:49 | 31.55958 | 120.41967 | 24892 ft | 465 kts | 111° |
| 2026-05-04 21:50 | 31.54919 | 120.45538 | 24441 ft | 461 kts | 111° |
| 2026-05-04 21:50 | 31.53884 | 120.49071 | 23995 ft | 456 kts | 111° |
| 2026-05-04 21:50 | 31.52854 | 120.52571 | 23529 ft | 452 kts | 110° |
| 2026-05-04 21:50 | 31.51830 | 120.56039 | 22999 ft | 448 kts | 110° |
| 2026-05-04 21:51 | 31.50815 | 120.59467 | 22432 ft | 445 kts | 110° |
| 2026-05-04 21:51 | 31.49802 | 120.62884 | 21879 ft | 441 kts | 110° |
| 2026-05-04 21:51 | 31.48799 | 120.66264 | 21340 ft | 438 kts | 110° |
| 2026-05-04 21:51 | 31.47807 | 120.69601 | 20610 ft | 431 kts | 110° |
| 2026-05-04 21:52 | 31.46825 | 120.72898 | 19802 ft | 427 kts | 110° |
| 2026-05-04 21:52 | 31.45851 | 120.76166 | 19049 ft | 423 kts | 110° |
| 2026-05-04 21:52 | 31.44887 | 120.79401 | 18305 ft | 418 kts | 110° |
| 2026-05-04 21:52 | 31.43917 | 120.82594 | 17616 ft | 410 kts | 111° |
| 2026-05-04 21:53 | 31.42949 | 120.85689 | 17067 ft | 400 kts | 111° |
| 2026-05-04 21:53 | 31.42009 | 120.88692 | 16623 ft | 387 kts | 111° |
| 2026-05-04 21:53 | 31.41101 | 120.91608 | 16200 ft | 375 kts | 111° |
| 2026-05-04 21:53 | 31.40489 | 120.94533 | 15794 ft | 366 kts | 95° |
| 2026-05-04 21:54 | 31.40741 | 120.97447 | 15464 ft | 363 kts | 73° |
| 2026-05-04 21:54 | 31.41538 | 121.00288 | 15117 ft | 370 kts | 69° |
| 2026-05-04 21:54 | 31.42410 | 121.03119 | 14772 ft | 369 kts | 69° |
| 2026-05-04 21:54 | 31.43274 | 121.05945 | 14457 ft | 367 kts | 69° |
| 2026-05-04 21:55 | 31.44122 | 121.08751 | 14125 ft | 365 kts | 70° |
| 2026-05-04 21:55 | 31.44783 | 121.11609 | 13779 ft | 364 kts | 82° |
| 2026-05-04 21:55 | 31.44740 | 121.14549 | 13445 ft | 359 kts | 96° |
| 2026-05-04 21:55 | 31.44423 | 121.17441 | 13119 ft | 357 kts | 98° |
| 2026-05-04 21:56 | 31.44086 | 121.20306 | 12898 ft | 355 kts | 98° |
| 2026-05-04 21:56 | 31.43764 | 121.23160 | 12654 ft | 352 kts | 97° |
| 2026-05-04 21:56 | 31.43450 | 121.26000 | 12472 ft | 351 kts | 97° |
| 2026-05-04 21:56 | 31.43137 | 121.28836 | 12286 ft | 350 kts | 97° |
| 2026-05-04 21:57 | 31.42832 | 121.31614 | 12144 ft | 337 kts | 97° |
| 2026-05-04 21:57 | 31.42542 | 121.34271 | 11914 ft | 322 kts | 97° |
| 2026-05-04 21:57 | 31.42260 | 121.36840 | 11535 ft | 315 kts | 97° |
| 2026-05-04 21:57 | 31.41991 | 121.39296 | 11071 ft | 310 kts | 97° |
| 2026-05-04 21:58 | 31.41714 | 121.41817 | 10523 ft | 306 kts | 97° |
| 2026-05-04 21:58 | 31.41446 | 121.44273 | 9998 ft | 303 kts | 97° |
| 2026-05-04 21:58 | 31.41184 | 121.46672 | 9417 ft | 300 kts | 96° |
| 2026-05-04 21:58 | 31.40923 | 121.49059 | 9016 ft | 287 kts | 96° |
| 2026-05-04 21:59 | 31.40674 | 121.51301 | 8764 ft | 270 kts | 96° |
| 2026-05-04 21:59 | 31.40437 | 121.53424 | 8490 ft | 256 kts | 96° |
| 2026-05-04 21:59 | 31.40211 | 121.55462 | 8026 ft | 251 kts | 96° |
| 2026-05-04 21:59 | 31.39876 | 121.57456 | 7494 ft | 249 kts | 107° |
| 2026-05-04 22:00 | 31.39263 | 121.59331 | 6989 ft | 246 kts | 112° |
| 2026-05-04 22:00 | 31.38590 | 121.61171 | 6477 ft | 244 kts | 112° |
| 2026-05-04 22:00 | 31.37931 | 121.62972 | 6184 ft | 234 kts | 112° |
| 2026-05-04 22:00 | 31.37319 | 121.64654 | 6035 ft | 216 kts | 112° |
| 2026-05-04 22:01 | 31.36742 | 121.66248 | 5681 ft | 210 kts | 112° |
| 2026-05-04 22:01 | 31.36176 | 121.67821 | 5231 ft | 209 kts | 113° |
| 2026-05-04 22:01 | 31.35616 | 121.69379 | 4829 ft | 207 kts | 113° |
| 2026-05-04 22:01 | 31.35174 | 121.70291 | 4500 ft | 206 kts | 131° |
| 2026-05-04 22:02 | 31.34065 | 121.71293 | 4074 ft | 198 kts | 156° |
| 2026-05-04 22:02 | 31.32786 | 121.71795 | 3731 ft | 189 kts | 166° |
| 2026-05-04 22:02 | 31.31581 | 121.72209 | 3560 ft | 173 kts | 163° |
| 2026-05-04 22:02 | 31.30470 | 121.72630 | 3309 ft | 163 kts | 163° |
| 2026-05-04 22:03 | 31.29400 | 121.73038 | 2904 ft | 159 kts | 163° |
| 2026-05-04 22:03 | 31.28379 | 121.73402 | 2668 ft | 149 kts | 165° |
| 2026-05-04 22:03 | 31.27410 | 121.73737 | 2416 ft | 142 kts | 162° |
| 2026-05-04 22:03 | 31.26504 | 121.74125 | 2201 ft | 136 kts | 160° |
| 2026-05-04 22:04 | 31.25619 | 121.74521 | 2067 ft | 137 kts | 162° |
| 2026-05-04 22:04 | 31.24709 | 121.74866 | 1986 ft | 139 kts | 166° |
| 2026-05-04 22:04 | 31.23768 | 121.75141 | 1829 ft | 138 kts | 167° |
| 2026-05-04 22:04 | 31.22853 | 121.75443 | 1610 ft | 135 kts | 163° |
| 2026-05-04 22:05 | 31.21966 | 121.75802 | 1400 ft | 135 kts | 161° |
| 2026-05-04 22:05 | 31.21094 | 121.76214 | 1202 ft | 135 kts | 159° |
| 2026-05-04 22:05 | 31.20195 | 121.76548 | 925 ft | 136 kts | 165° |
| 2026-05-04 22:05 | 31.19300 | 121.76876 | 735 ft | 134 kts | 162° |
| 2026-05-04 22:06 | 31.18412 | 121.77235 | 603 ft | 136 kts | 161° |
| 2026-05-04 22:06 | 31.17517 | 121.77573 | 418 ft | 135 kts | 161° |
| 2026-05-04 22:06 | 31.16624 | 121.77904 | 260 ft | 136 kts | 160° |
| 2026-05-04 22:06 | 31.15725 | 121.78250 | 116 ft | 136 kts | 163° |
| 2026-05-04 22:07 | 31.14822 | 121.78589 | 31 ft | 131 kts | 173° |
| 2026-05-04 22:07 | 31.14063 | 121.78870 | 27 ft | 99 kts | 162° |
| 2026-05-04 22:07 | 31.13671 | 121.79017 | 28 ft | 81 kts | 161° |
| 2026-05-04 22:07 | 31.13358 | 121.79136 | 30 ft | 24 kts | 160° |
| 2026-05-04 22:08 | 31.13217 | 121.79226 | 32 ft | 23 kts | 141° |
| 2026-05-04 22:08 | 31.13108 | 121.79363 | 30 ft | 20 kts | 111° |